Time;durP1;ratioP1;P1;durP2;ratioP2;P2;SDS_P1;SDS_P2;PMS_P1;PMS_P2;Temp;Humidity;BMP_temperature;BMP_pressure;BME280_temperature;BME280_humidity;BME280_pressure;Samples;Min_cycle;Max_cycle;Signal;HPM_P1;HPM_P2
2022/05/23 00:01:20;;;;;;;7.57;2.60;;;;;;;7.66;100.00;98841.91;5152893;27;20066;-59
2022/05/23 00:03:46;;;;;;;6.15;2.15;;;;;;;7.61;100.00;98820.38;5152821;27;20073;-59
2022/05/23 00:06:17;;;;;;;3.10;2.00;;;;;;;7.60;100.00;98698.72;5152716;27;20061;-59
2022/05/23 00:08:43;;;;;;;5.55;2.60;;;;;;;7.79;100.00;98603.25;5152777;27;20050;-59
2022/05/23 00:11:10;;;;;;;7.28;2.20;;;;;;;7.77;100.00;98417.31;5152074;27;20058;-58
2022/05/23 00:13:36;;;;;;;5.72;2.60;;;;;;;7.86;100.00;98349.59;5151987;27;20055;-58
2022/05/23 00:16:03;;;;;;;2.95;1.90;;;;;;;7.75;100.00;98409.47;5152571;27;20065;-59
2022/05/23 00:18:29;;;;;;;3.85;2.65;;;;;;;7.73;100.00;98537.28;5152440;27;20589;-59
2022/05/23 00:20:55;;;;;;;4.78;2.30;;;;;;;7.82;100.00;98482.47;5152416;27;20107;-58
2022/05/23 00:23:22;;;;;;;5.63;2.13;;;;;;;7.65;100.00;98439.31;5152129;27;20055;-59
2022/05/23 00:25:48;;;;;;;3.88;2.00;;;;;;;7.69;100.00;98344.66;5152365;27;20054;-58
2022/05/23 00:28:15;;;;;;;3.75;2.17;;;;;;;7.53;100.00;98389.25;5152296;27;20103;-58
2022/05/23 00:30:41;;;;;;;4.68;1.88;;;;;;;7.74;100.00;98194.31;5152428;27;20424;-59
2022/05/23 00:35:54;;;;;;;2.47;1.88;;;;;;;7.63;100.00;98185.19;5152135;27;20101;-59
2022/05/23 00:38:21;;;;;;;2.58;1.90;;;;;;;7.75;100.00;98326.84;5152313;27;20390;-58
2022/05/23 00:40:50;;;;;;;2.83;2.40;;;;;;;7.51;100.00;98230.63;5152152;27;20054;-58
2022/05/23 00:43:20;;;;;;;2.08;1.83;;;;;;;7.54;100.00;98128.19;5152313;27;20050;-58
2022/05/23 00:45:50;;;;;;;4.22;2.40;;;;;;;7.57;100.00;98075.63;5152005;27;20073;-58
2022/05/23 00:48:18;;;;;;;5.30;2.30;;;;;;;7.63;100.00;98157.91;5152225;27;20051;-59
2022/05/23 00:50:50;;;;;;;3.38;2.20;;;;;;;7.66;100.00;98334.47;5151946;27;20054;-59
2022/05/23 00:53:24;;;;;;;2.50;2.30;;;;;;;7.58;100.00;98474.63;5152089;27;20106;-58
2022/05/23 00:55:51;;;;;;;9.95;2.30;;;;;;;7.46;100.00;98569.13;5152102;27;20059;-59
2022/05/23 00:58:22;;;;;;;4.55;2.10;;;;;;;7.45;100.00;98488.44;5151796;27;20050;-59
2022/05/23 01:00:50;;;;;;;5.93;2.30;;;;;;;7.39;100.00;98412.72;5152067;27;20050;-58
2022/05/23 01:03:19;;;;;;;5.43;2.58;;;;;;;7.41;100.00;98399.53;5151749;27;20050;-58
2022/05/23 01:05:46;;;;;;;4.15;1.90;;;;;;;7.30;100.00;98243.94;5151959;27;20055;-58
2022/05/23 01:08:16;;;;;;;4.95;2.13;;;;;;;7.36;100.00;97993.53;5151534;27;20119;-59
2022/05/23 01:10:43;;;;;;;2.42;2.00;;;;;;;7.42;100.00;98009.22;5151685;27;20077;-58
2022/05/23 01:13:09;;;;;;;5.28;2.28;;;;;;;7.34;100.00;98009.50;5151729;27;20055;-59
2022/05/23 01:15:36;;;;;;;2.50;2.13;;;;;;;7.34;100.00;97980.31;5151645;27;20561;-59
2022/05/23 01:18:04;;;;;;;4.63;2.55;;;;;;;7.30;100.00;98034.78;5151591;27;20566;-58
2022/05/23 01:20:30;;;;;;;4.45;2.58;;;;;;;7.28;100.00;98014.50;5151424;27;20054;-59
2022/05/23 01:23:08;;;;;;;7.35;2.63;;;;;;;7.15;100.00;97975.78;5151580;27;20055;-58
2022/05/23 01:25:36;;;;;;;3.22;2.30;;;;;;;7.12;100.00;98077.38;5151488;27;20058;-58
2022/05/23 01:28:04;;;;;;;2.95;2.38;;;;;;;7.16;100.00;98036.53;5151685;27;20054;-58
2022/05/23 01:30:30;;;;;;;6.00;2.53;;;;;;;6.98;100.00;97990.75;5151278;27;20058;-59
2022/05/23 01:32:57;;;;;;;5.38;2.35;;;;;;;7.13;100.00;97990.94;5151583;27;20058;-58
2022/05/23 01:35:23;;;;;;;3.22;2.05;;;;;;;7.09;100.00;98007.25;5151342;27;20058;-58
2022/05/23 01:37:50;;;;;;;3.65;2.33;;;;;;;7.11;100.00;98083.19;5151240;27;20058;-58
2022/05/23 01:40:17;;;;;;;7.93;2.80;;;;;;;6.96;100.00;98039.38;5151205;27;20062;-58
2022/05/23 01:42:45;;;;;;;3.00;2.10;;;;;;;7.01;100.00;97987.28;5151024;27;20054;-58
2022/05/23 01:45:12;;;;;;;3.95;2.30;;;;;;;6.92;100.00;97953.31;5151236;27;20429;-58
2022/05/23 01:47:39;;;;;;;4.88;2.28;;;;;;;6.80;100.00;97821.66;5151233;27;20046;-58
2022/05/23 01:50:06;;;;;;;5.13;2.50;;;;;;;7.02;100.00;97756.47;5151171;27;20107;-58
2022/05/23 01:52:32;;;;;;;7.18;2.63;;;;;;;6.93;100.00;97788.66;5151133;27;20062;-58
2022/05/23 01:54:59;;;;;;;5.50;2.60;;;;;;;6.94;100.00;97864.59;5151312;27;20429;-58
2022/05/23 01:57:25;;;;;;;5.68;2.72;;;;;;;6.94;100.00;98057.28;5150867;27;20047;-58
2022/05/23 02:02:37;;;;;;;4.57;2.20;;;;;;;6.81;100.00;97931.38;5150940;27;20042;-58
2022/05/23 02:05:03;;;;;;;6.82;3.10;;;;;;;6.90;100.00;97959.13;5150894;27;20506;-58
2022/05/23 02:07:30;;;;;;;3.03;2.25;;;;;;;6.80;100.00;98096.00;5150884;27;20055;-58
2022/05/23 02:09:56;;;;;;;5.38;3.17;;;;;;;6.96;100.00;98112.16;5150682;27;20051;-58
2022/05/23 02:12:22;;;;;;;5.28;2.42;;;;;;;6.91;100.00;98184.13;5151043;27;20046;-58
2022/05/23 02:14:49;;;;;;;4.50;2.63;;;;;;;6.95;100.00;98287.72;5150647;27;20070;-58
2022/05/23 02:17:17;;;;;;;3.65;2.70;;;;;;;6.78;100.00;98240.72;5150748;27;20057;-58
2022/05/23 02:19:43;;;;;;;3.83;2.40;;;;;;;6.80;100.00;98050.47;5150657;27;20051;-58
2022/05/23 02:22:09;;;;;;;2.45;2.00;;;;;;;6.81;100.00;97928.66;5151044;27;20051;-58
2022/05/23 02:24:36;;;;;;;4.15;2.50;;;;;;;6.86;100.00;97990.97;5150650;27;20096;-58
2022/05/23 02:27:02;;;;;;;4.18;2.45;;;;;;;6.79;100.00;98008.00;5150683;27;20046;-58
2022/05/23 02:29:28;;;;;;;4.93;2.95;;;;;;;6.95;100.00;98080.63;5150407;27;20054;-59
2022/05/23 02:31:54;;;;;;;5.43;2.47;;;;;;;6.97;100.00;98207.19;5150679;27;20051;-59
2022/05/23 02:34:21;;;;;;;2.50;2.30;;;;;;;7.03;100.00;98211.19;5150813;27;20050;-59
2022/05/23 02:36:48;;;;;;;4.85;2.30;;;;;;;7.44;100.00;98110.53;5153842;27;20050;-58
2022/05/23 02:39:14;;;;;;;4.20;2.42;;;;;;;7.65;100.00;97915.56;5154505;27;20055;-58
2022/05/23 02:41:41;;;;;;;4.85;2.85;;;;;;;8.15;100.00;97765.84;5154271;27;20105;-59
2022/05/23 02:44:08;;;;;;;2.95;2.30;;;;;;;8.42;100.00;97671.56;5154207;27;20066;-59
2022/05/23 02:46:34;;;;;;;3.20;2.55;;;;;;;8.90;100.00;97634.94;5154051;27;20404;-59
2022/05/23 02:49:01;;;;;;;6.53;2.65;;;;;;;8.93;100.00;97593.19;5154444;27;20111;-59
2022/05/23 02:51:28;;;;;;;3.60;2.40;;;;;;;9.26;100.00;97580.22;5153638;27;20061;-59
2022/05/23 02:53:54;;;;;;;6.00;2.40;;;;;;;8.95;100.00;97580.66;5154068;27;20058;-59
2022/05/23 02:56:20;;;;;;;6.60;2.58;;;;;;;8.78;100.00;97586.91;5153686;27;20502;-59
2022/05/23 02:58:46;;;;;;;7.10;2.63;;;;;;;8.43;100.00;97590.41;5153960;27;20174;-59
2022/05/23 03:01:13;;;;;;;8.63;2.78;;;;;;;8.45;100.00;97597.06;5153695;27;20451;-59
2022/05/23 03:03:39;;;;;;;4.35;3.10;;;;;;;8.27;100.00;97601.69;5153652;27;20092;-59
2022/05/23 03:06:05;;;;;;;4.10;2.55;;;;;;;8.39;100.00;97672.34;5153654;27;20473;-59
2022/05/23 03:08:33;;;;;;;8.60;2.95;;;;;;;8.47;100.00;97840.53;5153509;27;20054;-59
2022/05/23 03:11:01;;;;;;;4.68;2.95;;;;;;;8.38;100.00;97902.91;5153918;27;20430;-59
2022/05/23 03:13:28;;;;;;;10.93;3.13;;;;;;;8.40;100.00;97963.38;5153325;27;20050;-58
2022/05/23 03:15:54;;;;;;;5.13;3.28;;;;;;;8.28;100.00;97977.31;5153733;27;20054;-58
2022/05/23 03:18:21;;;;;;;7.18;2.58;;;;;;;8.36;100.00;98008.94;5153405;27;20155;-59
2022/05/23 03:20:47;;;;;;;4.63;3.03;;;;;;;8.37;100.00;98028.88;5153624;27;20062;-59
2022/05/23 03:28:43;;;;;;;6.18;3.10;;;;;;;8.70;100.00;97935.09;5153476;27;20046;-59
2022/05/23 03:31:10;;;;;;;6.88;2.95;;;;;;;8.92;100.00;97775.47;5153126;27;20055;-58
2022/05/23 03:33:36;;;;;;;7.32;2.72;;;;;;;9.37;100.00;97710.31;5153299;27;20046;-59
2022/05/23 03:36:03;;;;;;;5.75;3.00;;;;;;;9.56;100.00;97708.31;5153144;27;20069;-59
2022/05/23 03:38:29;;;;;;;3.65;2.30;;;;;;;10.06;100.00;97642.47;5153188;27;20117;-59
2022/05/23 03:41:04;;;;;;;5.38;3.10;;;;;;;10.46;100.00;97621.97;5153023;27;20061;-59
2022/05/23 03:43:30;;;;;;;3.20;2.50;;;;;;;10.49;100.00;97617.63;5153418;27;20054;-59
2022/05/23 03:46:04;;;;;;;8.68;2.75;;;;;;;10.90;100.00;97627.91;5152482;27;20065;-59
2022/05/23 03:48:30;;;;;;;5.32;3.08;;;;;;;11.45;100.00;97611.28;5152935;27;20051;-59
2022/05/23 03:50:56;;;;;;;3.78;2.83;;;;;;;11.64;100.00;97626.41;5152963;27;20073;-59
2022/05/23 03:53:22;;;;;;;4.95;2.45;;;;;;;12.02;100.00;97632.63;5152938;27;20471;-59
2022/05/23 03:55:51;;;;;;;4.00;2.63;;;;;;;12.23;100.00;97653.56;5152777;27;20061;-59
2022/05/23 03:58:18;;;;;;;6.57;3.15;;;;;;;12.33;100.00;97698.59;5152765;27;20054;-59
2022/05/23 04:00:49;;;;;;;6.57;2.75;;;;;;;12.27;100.00;97692.00;5152968;27;20069;-59
2022/05/23 04:03:15;;;;;;;3.22;2.60;;;;;;;12.49;100.00;97667.75;5152813;27;20145;-59
2022/05/23 04:05:41;;;;;;;4.88;2.45;;;;;;;12.75;100.00;97663.44;5152960;27;20089;-59
2022/05/23 04:08:08;;;;;;;4.20;2.70;;;;;;;12.74;100.00;97771.13;5152853;27;20641;-59
2022/05/23 04:10:34;;;;;;;3.70;2.53;;;;;;;13.12;100.00;97741.47;5153200;27;20055;-59
2022/05/23 04:13:02;;;;;;;3.95;2.63;;;;;;;13.14;100.00;97799.63;5152557;27;20062;-59
2022/05/23 04:15:29;;;;;;;7.50;2.70;;;;;;;13.39;100.00;97830.38;5152857;27;20047;-59
2022/05/23 04:17:55;;;;;;;5.28;2.80;;;;;;;13.40;100.00;97823.66;5152829;27;20050;-59
2022/05/23 04:20:22;;;;;;;5.47;3.05;;;;;;;13.77;100.00;97810.88;5152458;27;20531;-59
2022/05/23 04:22:48;;;;;;;7.50;2.88;;;;;;;13.97;100.00;97816.44;5152609;27;20050;-59
2022/05/23 04:25:15;;;;;;;2.42;2.17;;;;;;;14.11;100.00;97876.81;5152134;27;20077;-59
2022/05/23 04:27:41;;;;;;;3.70;2.85;;;;;;;14.40;100.00;97895.63;5152460;27;20077;-60
2022/05/23 04:30:09;;;;;;;4.15;2.45;;;;;;;14.69;100.00;97930.97;5152203;27;20050;-59
2022/05/23 04:35:22;;;;;;;3.28;2.72;;;;;;;15.05;100.00;97994.56;5151978;27;20053;-59
2022/05/23 04:37:50;;;;;;;3.42;2.53;;;;;;;15.58;100.00;98031.38;5151873;27;20058;-59
2022/05/23 04:40:19;;;;;;;4.15;3.10;;;;;;;15.76;100.00;98022.75;5152347;27;20055;-59
2022/05/23 04:42:45;;;;;;;3.70;2.63;;;;;;;16.14;100.00;98056.28;5151973;27;20055;-59
2022/05/23 04:45:12;;;;;;;3.42;3.05;;;;;;;16.71;100.00;98070.78;5152154;27;20055;-60
2022/05/23 04:50:24;;;;;;;6.05;3.08;;;;;;;17.16;100.00;98109.63;5152085;27;20537;-59
2022/05/23 04:52:52;;;;;;;3.70;3.20;;;;;;;17.59;100.00;98086.31;5151611;27;20054;-59
2022/05/23 04:55:19;;;;;;;7.57;3.65;;;;;;;17.67;100.00;98142.34;5151935;27;20529;-60
2022/05/23 04:57:46;;;;;;;3.42;3.10;;;;;;;17.75;100.00;98163.09;5150860;27;20414;-60
2022/05/23 05:00:18;;;;;;;6.18;3.40;;;;;;;18.48;100.00;98166.19;5151774;27;20058;-60
2022/05/23 05:02:45;;;;;;;7.15;3.53;;;;;;;18.88;100.00;98178.91;5151912;27;20153;-60
2022/05/23 05:05:12;;;;;;;6.55;3.35;;;;;;;18.90;100.00;98218.91;5152069;27;20061;-60
2022/05/23 05:07:38;;;;;;;7.07;3.60;;;;;;;19.18;100.00;98202.53;5152305;27;20111;-60
2022/05/23 05:10:06;;;;;;;4.38;3.17;;;;;;;18.86;100.00;98211.88;5151836;27;20625;-60
2022/05/23 05:12:32;;;;;;;5.57;2.80;;;;;;;18.56;100.00;98198.06;5151896;27;20051;-60
2022/05/23 05:14:58;;;;;;;3.47;3.10;;;;;;;19.15;100.00;98173.66;5151583;27;20058;-60
2022/05/23 05:17:25;;;;;;;4.45;2.70;;;;;;;19.31;100.00;98225.53;5151795;27;20188;-60
2022/05/23 05:19:52;;;;;;;4.15;3.05;;;;;;;19.59;97.68;98237.72;5151405;27;20055;-60
2022/05/23 05:22:18;;;;;;;5.00;3.47;;;;;;;19.80;100.00;98232.69;5151492;27;20069;-60
2022/05/23 05:24:44;;;;;;;3.10;2.83;;;;;;;19.77;87.90;98269.75;5151291;27;20061;-60
2022/05/23 05:27:11;;;;;;;5.22;2.92;;;;;;;19.77;97.58;98244.72;5151265;27;20051;-60
2022/05/23 05:29:38;;;;;;;4.38;2.80;;;;;;;20.38;97.84;98243.34;5151066;27;20529;-60
2022/05/23 05:32:08;;;;;;;5.60;2.72;;;;;;;20.68;94.46;98248.22;5151053;27;20107;-61
2022/05/23 05:34:39;;;;;;;4.10;3.10;;;;;;;20.47;92.67;98262.13;5151445;27;20509;-60
2022/05/23 05:37:10;;;;;;;4.38;3.03;;;;;;;21.20;92.18;98259.00;5151192;27;20073;-61
2022/05/23 05:39:38;;;;;;;4.18;2.90;;;;;;;21.04;82.89;98287.88;5151334;27;20096;-60
2022/05/23 05:42:09;;;;;;;5.32;3.10;;;;;;;20.59;83.72;98281.59;5151017;27;20058;-60
2022/05/23 05:44:39;;;;;;;41.30;3.70;;;;;;;19.28;87.85;98282.00;5150925;27;20059;-60
2022/05/23 05:47:08;;;;;;;10.23;2.53;;;;;;;19.36;77.85;98299.22;5151028;27;20055;-60
2022/05/23 05:49:38;;;;;;;3.78;2.22;;;;;;;19.81;80.56;98306.56;5151012;27;20046;-60
2022/05/23 05:52:10;;;;;;;6.18;2.92;;;;;;;20.25;79.80;98299.06;5151181;27;20058;-61
2022/05/23 05:54:38;;;;;;;7.03;2.95;;;;;;;19.29;79.38;98308.56;5150782;27;20059;-60
2022/05/23 05:57:07;;;;;;;3.85;2.88;;;;;;;18.12;77.93;98316.22;5151096;27;20051;-60
2022/05/23 05:59:34;;;;;;;6.25;2.60;;;;;;;19.06;82.86;98304.13;5150562;27;20525;-60
2022/05/23 06:02:00;;;;;;;6.90;2.92;;;;;;;19.10;79.13;98304.78;5150688;27;20513;-60
2022/05/23 06:04:26;;;;;;;3.08;2.55;;;;;;;19.17;76.92;98307.34;5150843;27;20077;-60
2022/05/23 06:12:22;;;;;;;3.55;2.58;;;;;;;19.22;77.45;98317.13;5154527;27;20049;-60
2022/05/23 06:14:48;;;;;;;4.40;2.50;;;;;;;19.11;83.64;98302.78;5154260;27;20066;-60
2022/05/23 06:17:14;;;;;;;5.10;2.97;;;;;;;18.68;84.08;98296.47;5154126;27;20051;-60
2022/05/23 06:19:43;;;;;;;6.22;2.90;;;;;;;19.21;80.81;98304.47;5154226;27;20055;-60
2022/05/23 06:22:10;;;;;;;5.80;2.85;;;;;;;19.26;87.67;98284.47;5154327;27;20107;-60
2022/05/23 06:24:37;;;;;;;5.93;2.83;;;;;;;19.40;83.16;98289.56;5154198;27;20058;-60
2022/05/23 06:27:06;;;;;;;7.05;2.72;;;;;;;19.78;86.96;98290.75;5154020;27;20054;-60
2022/05/23 06:29:33;;;;;;;5.40;2.60;;;;;;;19.72;79.63;98307.22;5154460;27;20054;-61
2022/05/23 06:31:59;;;;;;;9.90;2.70;;;;;;;19.70;77.80;98310.47;5154084;27;20133;-60
2022/05/23 06:34:26;;;;;;;5.47;2.70;;;;;;;19.20;82.79;98314.81;5154005;27;20050;-60
2022/05/23 06:36:52;;;;;;;6.00;2.83;;;;;;;19.14;82.06;98305.44;5153991;27;20051;-60
2022/05/23 06:39:18;;;;;;;4.30;2.42;;;;;;;20.10;81.93;98309.16;5153895;27;20051;-61
2022/05/23 06:41:45;;;;;;;2.75;2.50;;;;;;;20.20;78.20;98321.94;5153681;27;20509;-60
2022/05/23 06:44:11;;;;;;;12.02;2.83;;;;;;;20.83;78.35;98317.34;5153606;27;20063;-61
2022/05/23 06:46:37;;;;;;;12.07;3.20;;;;;;;20.66;84.57;98302.84;5153722;27;20055;-61
2022/05/23 06:49:06;;;;;;;13.15;3.88;;;;;;;21.49;87.34;98292.91;5153439;27;20501;-66
2022/05/23 06:51:32;;;;;;;3.00;2.40;;;;;;;22.20;79.36;98311.50;5153565;27;20046;-65
2022/05/23 06:53:59;;;;;;;15.25;2.90;;;;;;;21.80;79.16;98320.72;5153391;27;20103;-63
2022/05/23 06:56:27;;;;;;;6.65;2.67;;;;;;;21.48;77.35;98327.56;5153522;27;20077;-63
2022/05/23 06:58:54;;;;;;;7.18;2.95;;;;;;;21.01;73.29;98334.13;5153449;27;20051;-63
2022/05/23 07:01:21;;;;;;;3.40;2.50;;;;;;;20.55;74.70;98328.25;5153734;27;20057;-62
2022/05/23 07:03:47;;;;;;;5.05;2.75;;;;;;;20.64;73.84;98328.34;5153370;27;20118;-62
2022/05/23 07:14:42;;;;;;;5.88;3.03;;;;;;;21.25;78.12;98323.25;5132943;27;20508;-60
2022/05/23 07:17:08;;;;;;;2.70;2.50;;;;;;;21.91;72.94;98339.78;5153351;27;20173;-62
2022/05/23 07:19:35;;;;;;;15.48;2.88;;;;;;;20.98;73.47;98334.28;5153401;27;20429;-63
2022/05/23 07:22:02;;;;;;;8.63;2.70;;;;;;;21.24;77.92;98334.88;5152493;27;20507;-64
2022/05/23 07:24:28;;;;;;;9.60;2.50;;;;;;;20.98;72.25;98345.41;5153290;27;20050;-62
2022/05/23 07:26:54;;;;;;;7.03;3.00;;;;;;;20.85;75.11;98337.13;5153312;27;20520;-63
2022/05/23 07:29:22;;;;;;;4.53;2.53;;;;;;;21.37;75.58;98325.22;5153374;27;20471;-63
2022/05/23 07:31:49;;;;;;;4.38;2.60;;;;;;;21.93;71.60;98337.34;5153281;27;20188;-67
2022/05/23 07:34:15;;;;;;;5.03;2.42;;;;;;;22.11;73.75;98331.00;5152931;27;20050;-63
2022/05/23 07:36:42;;;;;;;5.35;2.63;;;;;;;22.98;79.39;98326.81;5153448;27;20051;-63
2022/05/23 07:39:08;;;;;;;3.03;2.40;;;;;;;23.25;71.37;98341.97;5152970;27;20069;-62
2022/05/23 07:41:35;;;;;;;6.68;2.70;;;;;;;22.76;71.82;98349.34;5153154;27;20070;-68
2022/05/23 07:44:01;;;;;;;4.60;2.70;;;;;;;22.35;69.40;98347.94;5152652;27;20467;-63
2022/05/23 07:46:27;;;;;;;5.78;2.72;;;;;;;22.16;66.33;98358.34;5152155;27;20062;-62
2022/05/23 07:48:55;;;;;;;4.60;2.95;;;;;;;21.37;75.93;98336.38;5153004;27;20050;-63
2022/05/23 07:51:23;;;;;;;3.65;2.70;;;;;;;20.66;68.47;98345.38;5152518;27;20089;-65
2022/05/23 08:02:14;;;;;;;8.40;2.58;;;;;;;22.42;72.96;98350.44;5088854;28;20044;-64
2022/05/23 08:04:41;;;;;;;5.88;2.45;;;;;;;21.20;68.69;98345.41;5137098;27;20104;-62
2022/05/23 08:07:09;;;;;;;8.48;2.33;;;;;;;22.07;69.51;98335.97;5151919;27;20061;-66
2022/05/23 08:09:35;;;;;;;5.40;2.13;;;;;;;22.44;68.57;98342.38;5152495;27;20061;-66
2022/05/23 08:12:04;;;;;;;7.65;2.92;;;;;;;21.64;65.02;98348.88;5152711;27;20091;-66
2022/05/23 08:14:30;;;;;;;3.72;2.55;;;;;;;21.68;66.97;98352.28;5152351;27;20054;-66
2022/05/23 08:16:57;;;;;;;4.00;2.58;;;;;;;22.02;68.18;98336.56;5152518;27;20050;-65
2022/05/23 08:19:23;;;;;;;3.97;2.60;;;;;;;21.58;74.71;98322.81;5152701;27;20055;-65
2022/05/23 08:21:53;;;;;;;4.93;2.40;;;;;;;21.91;68.54;98330.66;5152611;27;20054;-62
2022/05/23 08:24:20;;;;;;;3.33;2.60;;;;;;;22.83;69.59;98337.06;5152553;27;20061;-63
2022/05/23 08:26:47;;;;;;;6.57;3.20;;;;;;;22.37;78.93;98333.53;5152714;27;20767;-63
2022/05/23 08:29:13;;;;;;;5.47;2.97;;;;;;;21.71;67.38;98340.22;5152229;27;20458;-64
2022/05/23 08:31:41;;;;;;;3.28;2.60;;;;;;;21.77;67.58;98334.81;5152472;27;20058;-62
2022/05/23 08:34:08;;;;;;;5.60;2.50;;;;;;;21.81;67.66;98338.22;5151072;27;20529;-63
2022/05/23 08:36:34;;;;;;;16.15;2.85;;;;;;;21.84;63.93;98335.28;5152136;27;20058;-64
2022/05/23 08:39:02;;;;;;;4.25;2.40;;;;;;;22.27;67.43;98336.31;5152087;27;20055;-63
2022/05/23 08:41:31;;;;;;;3.65;2.17;;;;;;;22.47;69.07;98335.84;5151675;27;20055;-63
2022/05/23 08:44:05;;;;;;;5.78;2.78;;;;;;;22.26;66.79;98334.78;5151643;27;20498;-59
2022/05/23 08:46:40;;;;;;;2.45;2.25;;;;;;;22.33;73.87;98327.34;5151516;27;20573;-62
2022/05/23 08:49:15;;;;;;;9.65;2.60;;;;;;;22.43;72.25;98338.03;5151718;27;20088;-62
2022/05/23 08:51:45;;;;;;;2.83;2.22;;;;;;;22.95;70.40;98344.50;5151629;27;20050;-61
2022/05/23 08:54:22;;;;;;;5.32;2.72;;;;;;;23.35;68.53;98346.28;5151832;27;20058;-67
2022/05/23 08:56:54;;;;;;;20.45;2.80;;;;;;;21.81;69.57;98341.00;5151669;27;20050;-68
2022/05/23 08:59:25;;;;;;;4.13;2.65;;;;;;;21.54;75.56;98322.94;5151339;27;20853;-65
2022/05/23 09:01:57;;;;;;;6.82;2.78;;;;;;;21.89;69.22;98331.09;5152150;27;20062;-68
2022/05/23 09:04:35;;;;;;;4.97;2.38;;;;;;;22.59;72.70;98327.78;5151739;27;20103;-66
2022/05/23 09:07:03;;;;;;;3.72;2.70;;;;;;;23.36;70.53;98319.06;5152068;27;20475;-67
2022/05/23 09:09:32;;;;;;;3.05;2.70;;;;;;;23.67;72.53;98321.59;5151875;27;20046;-65
2022/05/23 09:12:07;;;;;;;7.10;2.83;;;;;;;22.71;72.90;98326.84;5151438;27;20137;-64
2022/05/23 09:14:33;;;;;;;4.20;2.50;;;;;;;23.38;71.18;98331.34;5151494;27;20069;-64
2022/05/23 09:16:59;;;;;;;3.35;2.70;;;;;;;23.54;67.58;98337.81;5151617;27;20066;-66
2022/05/23 09:19:32;;;;;;;5.93;2.42;;;;;;;22.64;68.67;98335.53;5151732;27;20058;-65
2022/05/23 09:22:12;;;;;;;6.70;3.10;;;;;;;23.40;69.26;98323.28;5151534;27;20051;-65
2022/05/23 09:24:42;;;;;;;5.75;2.50;;;;;;;23.39;69.35;98329.31;5151585;27;20059;-65
2022/05/23 09:27:16;;;;;;;6.88;2.95;;;;;;;22.59;68.88;98322.94;5151171;27;20050;-64
2022/05/23 09:29:42;;;;;;;7.10;2.90;;;;;;;22.13;69.98;98314.56;5151400;27;20054;-64
2022/05/23 09:32:12;;;;;;;3.38;2.85;;;;;;;22.38;72.42;98313.50;5151165;27;20051;-64
2022/05/23 09:34:51;;;;;;;6.35;2.80;;;;;;;23.13;72.05;98315.00;5151242;27;20054;-64
2022/05/23 09:37:21;;;;;;;5.25;2.90;;;;;;;23.30;73.28;98318.97;5151157;27;20122;-64
2022/05/23 09:39:53;;;;;;;5.90;3.10;;;;;;;22.15;75.55;98322.47;5151038;27;20059;-64
2022/05/23 09:48:09;;;;;;;4.22;3.00;;;;;;;22.71;68.85;98313.63;5155123;27;20115;-64
2022/05/23 09:50:38;;;;;;;3.13;2.50;;;;;;;22.36;69.47;98313.22;5154408;27;20101;-64
2022/05/23 09:53:14;;;;;;;4.82;3.10;;;;;;;22.86;71.07;98308.19;5154653;27;20056;-64
2022/05/23 09:55:41;;;;;;;4.75;2.78;;;;;;;23.49;69.70;98312.06;5154799;27;20069;-65
2022/05/23 09:58:08;;;;;;;5.75;2.45;;;;;;;22.58;66.96;98327.00;5154657;27;20054;-64
2022/05/23 10:00:37;;;;;;;6.55;2.85;;;;;;;21.93;70.34;98322.59;5154718;27;20058;-64
2022/05/23 10:03:06;;;;;;;5.55;3.22;;;;;;;22.45;72.28;98315.97;5154653;27;20061;-64
2022/05/23 10:05:35;;;;;;;5.30;2.53;;;;;;;22.01;67.93;98316.25;5154510;27;20058;-64
2022/05/23 10:08:04;;;;;;;2.97;2.67;;;;;;;21.88;68.80;98314.84;5154359;27;20055;-64
2022/05/23 10:10:32;;;;;;;2.90;2.45;;;;;;;21.59;69.06;98324.34;5154310;27;20065;-64
2022/05/23 10:13:19;;;;;;;4.57;2.67;;;;;;;21.73;68.30;98317.44;5154044;27;20051;-64
2022/05/23 10:19:36;;;;;;;3.42;2.58;;;;;;;21.39;68.21;98310.81;5154756;27;20485;-64
2022/05/23 10:22:16;;;;;;;3.63;2.55;;;;;;;21.64;69.15;98315.41;5094776;27;20060;-64
2022/05/23 10:24:57;;;;;;;5.55;2.60;;;;;;;21.04;72.49;98304.59;5154172;27;20054;-64
2022/05/23 10:27:36;;;;;;;4.03;2.22;;;;;;;20.63;73.45;98296.16;5153987;27;20406;-64
2022/05/23 10:30:06;;;;;;;5.47;2.53;;;;;;;20.66;76.49;98292.47;5154069;27;20054;-64
2022/05/23 10:32:38;;;;;;;8.35;3.40;;;;;;;20.70;80.97;98288.78;5154063;27;20058;-64
2022/05/23 10:35:09;;;;;;;6.28;2.67;;;;;;;20.71;77.31;98284.75;5153844;27;20055;-64
2022/05/23 10:37:37;;;;;;;5.82;2.22;;;;;;;21.17;75.83;98291.34;5153842;27;20051;-64
2022/05/23 10:43:00;;;;;;;5.20;2.50;;;;;;;20.72;81.03;98275.94;5153670;27;20050;-64
2022/05/23 10:45:32;;;;;;;3.28;1.70;;;;;;;20.42;82.83;98280.19;5153681;27;20099;-63
2022/05/23 10:48:22;;;;;;;5.00;2.75;;;;;;;20.79;76.78;98286.03;5153573;27;20046;-64
2022/05/23 10:50:54;;;;;;;5.32;2.83;;;;;;;20.28;82.27;98289.06;5153737;27;20051;-63
2022/05/23 10:53:38;;;;;;;4.35;2.95;;;;;;;20.43;79.48;98279.75;5153531;27;20501;-64
2022/05/23 10:56:17;;;;;;;3.70;2.50;;;;;;;20.31;77.69;98279.81;5152486;27;20201;-64
2022/05/23 10:58:50;;;;;;;4.15;2.70;;;;;;;20.35;77.07;98294.34;5153537;27;20055;-63
2022/05/23 11:01:30;;;;;;;7.53;2.33;;;;;;;19.90;73.54;98287.19;5153548;27;20126;-63
2022/05/23 11:04:06;;;;;;;5.10;2.00;;;;;;;19.71;77.85;98278.66;5153020;27;20047;-64
2022/05/23 11:06:45;;;;;;;4.28;2.70;;;;;;;19.46;79.40;98268.34;5153038;27;20050;-79
2022/05/23 11:09:23;;;;;;;5.88;2.20;;;;;;;19.21;83.89;98269.13;5153424;27;20054;-71
2022/05/23 11:12:04;;;;;;;13.25;2.97;;;;;;;19.23;90.45;98252.78;5153284;27;20142;-72
2022/05/23 11:14:42;;;;;;;5.60;2.20;;;;;;;19.16;79.88;98280.78;5153220;27;20133;-70
2022/05/23 11:17:25;;;;;;;8.52;2.30;;;;;;;18.77;81.77;98277.19;5153379;27;20107;-80
2022/05/23 11:20:04;;;;;;;6.78;2.42;;;;;;;19.16;76.72;98286.34;5153185;27;20960;-76
2022/05/23 11:22:35;;;;;;;3.55;1.70;;;;;;;19.16;78.02;98291.91;5153361;27;20108;-77
2022/05/23 11:25:13;;;;;;;6.60;2.75;;;;;;;19.00;85.03;98276.13;5153074;27;20645;-75
2022/05/23 11:36:02;;;;;;;4.25;2.20;;;;;;;18.38;79.97;98281.06;5152663;27;20418;-69
2022/05/23 11:38:29;;;;;;;2.83;2.33;;;;;;;17.71;78.31;98287.13;5152776;27;20409;-72
2022/05/23 11:41:04;;;;;;;3.50;2.15;;;;;;;17.57;83.81;98277.19;5134346;27;20050;-73
2022/05/23 11:43:30;;;;;;;4.35;1.70;;;;;;;17.82;82.88;98273.81;5152765;27;20149;-72
2022/05/23 11:45:59;;;;;;;3.85;2.00;;;;;;;17.65;81.63;98275.00;5153071;27;20058;-65
2022/05/23 11:48:58;;;;;;;1.50;1.40;;;;;;;17.57;82.51;98282.72;5152931;27;20055;-63
2022/05/23 11:51:36;;;;;;;5.43;1.83;;;;;;;17.53;83.07;98284.81;5152696;27;20055;-62
2022/05/23 11:54:08;;;;;;;4.80;1.90;;;;;;;17.31;85.31;98275.44;5152739;27;20614;-63
2022/05/23 11:56:41;;;;;;;8.70;2.92;;;;;;;17.57;84.62;98270.88;5152199;27;20452;-63
2022/05/23 11:59:10;;;;;;;2.72;1.80;;;;;;;17.50;85.61;98266.28;5152449;27;20069;-63
2022/05/23 12:01:37;;;;;;;2.97;1.55;;;;;;;17.70;83.03;98274.50;5152473;27;20188;-63
2022/05/23 12:04:28;;;;;;;2.60;1.80;;;;;;;17.88;85.17;98269.28;5152566;27;20058;-63
2022/05/23 12:06:54;;;;;;;2.50;2.28;;;;;;;17.56;79.88;98274.84;5152228;27;20054;-63
2022/05/23 12:09:38;;;;;;;3.88;1.90;;;;;;;17.56;81.04;98270.09;5152385;27;20527;-64
2022/05/23 12:12:34;;;;;;;5.38;1.83;;;;;;;17.61;78.71;98268.78;5152680;27;20535;-64
2022/05/23 12:15:01;;;;;;;3.08;1.52;;;;;;;18.00;81.75;98259.50;5152281;27;20054;-64
2022/05/23 12:17:30;;;;;;;2.45;1.83;;;;;;;17.92;83.38;98255.34;5152370;27;20114;-64
2022/05/23 12:19:59;;;;;;;2.78;1.90;;;;;;;17.95;78.18;98268.34;5152320;27;20061;-64
2022/05/23 12:22:32;;;;;;;1.80;1.48;;;;;;;17.64;85.97;98262.38;5152299;27;20062;-64
2022/05/23 12:25:20;;;;;;;6.30;1.40;;;;;;;17.48;84.37;98257.63;5152474;27;20496;-64
2022/05/23 12:28:14;;;;;;;4.88;1.90;;;;;;;17.49;84.65;98252.84;5152251;27;20046;-64
2022/05/23 12:30:44;;;;;;;4.35;2.03;;;;;;;17.66;82.64;98254.41;5152007;27;20076;-64
2022/05/23 12:33:15;;;;;;;3.83;1.65;;;;;;;17.54;83.35;98252.34;5151901;27;20149;-64
2022/05/23 12:35:50;;;;;;;1.83;1.67;;;;;;;17.93;80.84;98258.91;5151886;27;20058;-64
2022/05/23 12:38:34;;;;;;;5.00;1.65;;;;;;;17.52;80.02;98258.31;5151873;27;20521;-64
2022/05/23 12:41:11;;;;;;;5.83;2.10;;;;;;;17.60;85.57;98254.16;5151782;27;20066;-64